Curtis, NE

6:42 PM CDT on August 01, 2014 (GMT -0500)
Kelly (KLXN) Elev 2411 ft | 40.79 °N, 99.78 °W | Change Station

Current weather conditions updated 1 hour ago

Clear
Clear
87 °F
Feels Like 86 °F
N
7
Wind Variable Wind from SE
Gusts 10 mph

Tomorrow is forecast to be nearly the same temperature as today.

Today
High -- | Low -- °F
--% Chance of Precip.
Yesterday
High -- | Low -- °F
Precip. -- in
6:38 AM 8:57 PM
Waxing Crescent, 30% visible
Pressure 30.10 in
Visibility 10.0 miles
Clouds Clear
Heat Index 86 °F
Dew Point 56 °F
Humidity 35%
Rainfall 0.00 in
Snow Depth Not available.
UV 4 out of 12
Pollen 7.50 out of 12
Air Quality Not available.
Flu Activity Not available.
METAR KLXN 012235Z AUTO 14006G09KT 10SM CLR 31/13 A3010 RMK AO2 T03060134

More Conditions Fewer Conditions

Pressure 30.10 in
Visibility 10.0 miles
Clouds Clear
Heat Index 86 °F
Dew Point 56 °F
Humidity 35%
Rainfall 0.00 in
Snow Depth Not available.
UV 4 out of 12
Pollen 7.50 out of 12
Air Quality Not available.
Flu Activity Not available.
METAR KLXN 012235Z AUTO 14006G09KT 10SM CLR 31/13 A3010 RMK AO2 T03060134

More Conditions Fewer Conditions

10-Day Weather Forecast

Almanac

Astronomy

Aug. 01, 2014 Rise Set
Actual Time 6:38 AM CDT 8:57 PM CDT
Civil Twilight 6:08 AM CDT 9:27 PM CDT
Nautical Twilight 5:30 AM CDT 10:05 PM CDT
Astronomical Twilight 4:48 AM CDT 10:47 PM CDT
Moon 12:06 PM CDT 11:40 PM CDT
Length of Visible Light 15h 19m
Length of Day
14h 18m
Tomorrow will be 2m 3s shorter.
Waxing Crescent, 30% of the Moon is Illuminated
Today
Waxing Crescent
Aug 3
First Quarter
Aug 10
Full
Aug 17
Last Quarter
Aug 25
New

Today's Extremes

State Highs State Lows

Community

WunderPhotos

Upload Photos

1,739,759 photos uploaded!

Nearby

Snow Depth

Station Depth Elevation
No new snow has been reported.

Earthquake Activity

City Distance Mag. Time & Date
No recent earthquake activity has been reported nearby.
Minimum magnitude displayed is 2.5.

Coastal Water Temperatures

Place Temperature
No Stations Reporting

Nearby Weather Stations

There are no personal weather stations in this area.